createdAt,value
2019-04-21T00:02:52.534Z,8.10
2019-04-21T00:06:11.970Z,8.07
2019-04-21T00:09:20.428Z,8.14
2019-04-21T00:12:13.974Z,8.45
2019-04-21T00:15:05.021Z,8.48
2019-04-21T00:17:58.412Z,8.20
2019-04-21T00:20:56.218Z,7.97
2019-04-21T00:24:07.653Z,7.81
2019-04-21T00:27:10.942Z,7.87
2019-04-21T00:30:14.130Z,7.89
2019-04-21T00:33:03.314Z,8.39
2019-04-21T00:35:59.844Z,8.63
2019-04-21T00:39:20.943Z,9.05
2019-04-21T00:42:09.810Z,8.62
2019-04-21T00:45:09.570Z,8.32
2019-04-21T00:48:20.669Z,8.02
2019-04-21T00:51:25.085Z,7.84
2019-04-21T00:54:16.759Z,8.15
2019-04-21T00:57:22.075Z,8.35
2019-04-21T01:00:18.666Z,8.86
2019-04-21T01:03:14.510Z,9.38
2019-04-21T01:06:21.256Z,9.61
2019-04-21T01:09:09.574Z,9.52
2019-04-21T01:12:12.718Z,9.13
2019-04-21T01:15:21.159Z,8.84
2019-04-21T01:18:09.251Z,8.68
2019-04-21T01:20:51.736Z,8.40
2019-04-21T01:23:50.851Z,8.04
2019-04-21T01:27:02.038Z,7.94
2019-04-21T01:30:15.019Z,7.55
2019-04-21T01:33:17.360Z,7.45
2019-04-21T01:36:12.294Z,7.34
2019-04-21T01:39:13.180Z,7.20
2019-04-21T01:42:12.633Z,7.09
2019-04-21T01:45:12.877Z,7.09
2019-04-21T01:48:06.229Z,7.08
2019-04-21T01:51:10.074Z,7.05
2019-04-21T01:54:14.665Z,7.22
2019-04-21T01:57:11.443Z,7.20
2019-04-21T01:59:59.760Z,7.24
2019-04-21T02:03:28.523Z,7.71
2019-04-21T02:06:29.106Z,8.07
2019-04-21T02:09:10.091Z,8.37
2019-04-21T02:12:13.418Z,8.73
2019-04-21T02:15:20.134Z,8.75
2019-04-21T02:18:12.084Z,8.72
2019-04-21T02:21:00.143Z,8.42
2019-04-21T02:24:35.129Z,7.89
2019-04-21T02:27:12.787Z,7.47
2019-04-21T02:30:18.577Z,7.34
2019-04-21T02:36:32.806Z,6.90
2019-04-21T02:39:23.194Z,6.73
2019-04-21T02:42:19.972Z,6.71
2019-04-21T02:45:23.587Z,6.81
2019-04-21T02:48:28.667Z,6.62
2019-04-21T02:51:27.993Z,6.47
2019-04-21T02:54:49.782Z,6.44
2019-04-21T03:00:24.573Z,6.59
2019-04-21T03:06:24.992Z,6.54
2019-04-21T03:09:26.241Z,6.59
2019-04-21T03:12:20.615Z,6.56
2019-04-21T03:15:23.472Z,6.65
2019-04-21T03:18:26.601Z,6.51
2019-04-21T03:21:22.233Z,6.53
2019-04-21T03:24:18.448Z,6.61
2019-04-21T03:27:35.551Z,6.76
2019-04-21T03:36:41.053Z,7.38
2019-04-21T03:39:18.020Z,7.32
2019-04-21T03:42:26.895Z,7.37
2019-04-21T03:45:34.793Z,7.20
2019-04-21T03:48:36.159Z,7.02
2019-04-21T03:51:21.021Z,6.97
2019-04-21T03:54:18.183Z,6.73
2019-04-21T04:00:34.701Z,6.81
2019-04-21T04:06:20.568Z,6.69
2019-04-21T04:09:25.724Z,6.35
2019-04-21T04:12:32.813Z,6.04
2019-04-21T04:15:31.118Z,5.98
2019-04-21T04:18:36.255Z,6.07
2019-04-21T04:21:28.809Z,6.09
2019-04-21T04:30:27.639Z,6.25
2019-04-21T04:33:30.337Z,6.30
2019-04-21T04:39:36.302Z,6.13
2019-04-21T04:48:21.126Z,6.10
2019-04-21T04:51:22.996Z,6.19
2019-04-21T04:54:31.640Z,6.35
2019-04-21T04:57:29.067Z,6.33
2019-04-21T05:00:26.123Z,6.46
2019-04-21T05:03:26.356Z,6.53
2019-04-21T05:06:37.243Z,6.59
2019-04-21T05:09:25.256Z,6.65
2019-04-21T05:12:15.759Z,6.97
2019-04-21T05:15:16.190Z,7.35
2019-04-21T05:18:21.943Z,7.53
2019-04-21T05:21:34.284Z,7.77
2019-04-21T05:24:07.504Z,8.12
2019-04-21T05:27:03.446Z,8.44
2019-04-21T05:30:17.793Z,8.81
2019-04-21T05:33:09.690Z,8.91
2019-04-21T05:36:09.386Z,9.18
2019-04-21T05:39:10.692Z,9.66
2019-04-21T05:42:00.260Z,10.01
2019-04-21T05:45:27.027Z,10.33
2019-04-21T05:49:52.485Z,10.70
2019-04-21T05:52:52.015Z,10.92
2019-04-21T05:55:58.401Z,11.01
2019-04-21T05:58:58.085Z,11.29
2019-04-21T06:02:09.313Z,11.46
2019-04-21T06:05:05.836Z,11.74
2019-04-21T06:07:52.673Z,11.85
2019-04-21T06:11:13.147Z,11.90
2019-04-21T06:16:58.665Z,13.12
2019-04-21T06:23:00.889Z,18.44
2019-04-21T06:26:04.324Z,20.80
2019-04-21T06:29:08.647Z,22.56
2019-04-21T06:37:56.485Z,24.04
2019-04-21T06:40:56.386Z,23.71
2019-04-21T06:44:12.879Z,23.95
2019-04-21T06:46:51.670Z,23.42
2019-04-21T06:49:54.927Z,25.80
2019-04-21T06:53:00.777Z,26.46
2019-04-21T06:55:55.975Z,26.79
2019-04-21T06:58:59.238Z,26.20
2019-04-21T07:01:56.631Z,26.98
2019-04-21T07:04:54.638Z,27.23
2019-04-21T07:08:07.729Z,28.16
2019-04-21T07:11:00.572Z,27.24
2019-04-21T07:14:05.664Z,27.89
2019-04-21T07:16:56.380Z,28.32
2019-04-21T07:19:57.439Z,29.03
2019-04-21T07:22:56.513Z,29.44
2019-04-21T07:25:52.910Z,30.11
2019-04-21T07:29:02.956Z,28.44
2019-04-21T07:31:58.726Z,28.80
2019-04-21T07:35:00.309Z,29.38
2019-04-21T07:37:53.357Z,29.37
2019-04-21T07:40:48.488Z,28.96
2019-04-21T07:43:47.753Z,29.33
2019-04-21T07:46:45.288Z,30.56
2019-04-21T07:49:57.411Z,31.35
2019-04-21T07:53:02.047Z,29.86
2019-04-21T07:55:34.245Z,30.67
2019-04-21T07:58:58.287Z,30.31
2019-04-21T08:01:56.390Z,30.75
2019-04-21T08:07:59.239Z,29.92
2019-04-21T08:10:52.268Z,29.89
2019-04-21T08:13:54.996Z,29.66
2019-04-21T08:19:49.670Z,31.21
2019-04-21T08:22:51.614Z,30.90
2019-04-21T08:25:58.964Z,31.73
2019-04-21T08:28:58.457Z,31.79
2019-04-21T08:31:56.144Z,32.42
2019-04-21T08:35:07.126Z,32.77
2019-04-21T08:37:49.557Z,33.74
2019-04-21T08:40:53.702Z,32.24
2019-04-21T08:43:51.384Z,32.85
2019-04-21T08:46:52.583Z,32.39
2019-04-21T08:49:55.467Z,32.69
2019-04-21T08:52:56.436Z,33.82
2019-04-21T08:55:55.399Z,32.73
2019-04-21T08:59:00.717Z,33.60
2019-04-21T09:02:14.415Z,32.20
2019-04-21T09:04:52.751Z,34.51
2019-04-21T09:07:56.070Z,33.74
2019-04-21T09:10:56.049Z,33.31
2019-04-21T09:13:50.648Z,33.08
2019-04-21T09:16:47.278Z,32.37
2019-04-21T09:19:58.049Z,33.29
2019-04-21T09:22:50.575Z,34.48
2019-04-21T09:25:53.032Z,31.76
2019-04-21T09:28:45.135Z,32.59
2019-04-21T09:31:37.429Z,30.83
2019-04-21T09:34:36.986Z,32.59
2019-04-21T09:37:40.720Z,33.76
2019-04-21T09:40:37.161Z,33.36
2019-04-21T09:43:40.052Z,33.83
2019-04-21T09:46:34.175Z,33.51
2019-04-21T09:49:33.213Z,32.71
2019-04-21T09:52:40.906Z,32.74
2019-04-21T09:55:41.751Z,30.00
2019-04-21T09:58:38.664Z,31.73
2019-04-21T10:01:45.047Z,31.46
2019-04-21T10:04:31.220Z,31.39
2019-04-21T10:07:35.579Z,33.26
2019-04-21T10:10:31.923Z,31.60
2019-04-21T10:13:30.138Z,32.36
2019-04-21T10:16:30.101Z,32.64
2019-04-21T10:19:30.089Z,31.54
2019-04-21T10:22:30.968Z,31.73
2019-04-21T10:25:30.661Z,31.58
2019-04-21T10:28:30.986Z,32.98
2019-04-21T10:31:29.991Z,31.21
2019-04-21T10:34:29.947Z,33.51
2019-04-21T10:37:42.892Z,30.50
2019-04-21T10:40:33.820Z,32.25
2019-04-21T10:43:31.194Z,31.58
2019-04-21T10:46:30.799Z,32.18
2019-04-21T10:49:30.777Z,34.34
2019-04-21T10:52:32.457Z,33.87
2019-04-21T10:55:44.440Z,31.88
2019-04-21T10:58:32.038Z,31.96
2019-04-21T11:01:29.724Z,34.61
2019-04-21T11:04:35.356Z,34.44
2019-04-21T11:07:34.433Z,33.80
2019-04-21T11:10:31.885Z,32.92
2019-04-21T11:13:30.728Z,32.66
2019-04-21T11:16:30.847Z,31.53
2019-04-21T11:19:30.717Z,31.35
2019-04-21T11:22:31.015Z,31.61
2019-04-21T11:25:30.428Z,32.73
2019-04-21T11:28:29.480Z,32.92
2019-04-21T11:31:29.478Z,31.15
2019-04-21T11:34:29.429Z,32.27
2019-04-21T11:37:30.483Z,33.03
2019-04-21T11:40:29.694Z,31.79
2019-04-21T11:43:30.707Z,30.26
2019-04-21T11:46:30.674Z,30.87
2019-04-21T11:49:32.277Z,31.26
2019-04-21T11:52:29.301Z,31.26
2019-04-21T11:55:35.250Z,32.21
2019-04-21T11:58:30.225Z,31.20
2019-04-21T12:01:29.725Z,31.30
2019-04-21T12:04:29.537Z,33.45
2019-04-21T12:07:29.374Z,31.91
2019-04-21T12:10:29.348Z,31.17
2019-04-21T12:13:30.037Z,32.32
2019-04-21T12:16:29.069Z,33.33
2019-04-21T12:19:30.441Z,33.82
2019-04-21T12:22:37.318Z,32.91
2019-04-21T12:25:29.229Z,31.06
2019-04-21T12:28:30.288Z,32.55
2019-04-21T12:31:29.769Z,33.30
2019-04-21T12:34:30.182Z,33.82
2019-04-21T12:37:29.000Z,32.74
2019-04-21T12:40:28.874Z,32.13
2019-04-21T12:43:28.805Z,31.96
2019-04-21T12:46:29.881Z,32.27
2019-04-21T12:49:29.724Z,31.96
2019-04-21T12:52:29.463Z,32.07
2019-04-21T12:55:31.681Z,32.06
2019-04-21T12:58:31.033Z,31.08
2019-04-21T13:01:28.668Z,31.77
2019-04-21T13:04:29.345Z,32.49
2019-04-21T13:07:28.635Z,32.49
2019-04-21T13:10:28.566Z,33.20
2019-04-21T13:13:28.550Z,33.63
2019-04-21T13:16:29.467Z,32.36
2019-04-21T13:19:29.357Z,30.65
2019-04-21T13:22:28.476Z,31.39
2019-04-21T13:25:29.669Z,33.07
2019-04-21T13:28:28.415Z,32.30
2019-04-21T13:31:28.394Z,31.58
2019-04-21T13:34:28.428Z,32.85
2019-04-21T13:37:29.678Z,31.58
2019-04-21T13:40:45.086Z,30.96
2019-04-21T13:43:30.715Z,31.64
2019-04-21T13:46:28.914Z,33.11
2019-04-21T13:49:29.501Z,31.02
2019-04-21T13:52:28.994Z,32.32
2019-04-21T13:55:29.619Z,32.59
2019-04-21T13:58:28.560Z,30.15
2019-04-21T14:01:28.097Z,31.60
2019-04-21T14:04:29.454Z,30.31
2019-04-21T14:07:28.125Z,31.88
2019-04-21T14:10:29.247Z,30.12
2019-04-21T14:13:27.980Z,31.17
2019-04-21T14:16:27.967Z,31.18
2019-04-21T14:19:27.922Z,31.48
2019-04-21T14:22:28.343Z,31.79
2019-04-21T14:25:28.033Z,32.40
2019-04-21T14:28:28.272Z,31.36
2019-04-21T14:31:28.437Z,32.14
2019-04-21T14:34:28.181Z,31.88
2019-04-21T14:37:28.755Z,30.99
2019-04-21T14:40:29.853Z,31.46
2019-04-21T14:43:28.031Z,31.80
2019-04-21T14:46:29.026Z,31.39
2019-04-21T14:49:28.986Z,32.66
2019-04-21T14:52:28.724Z,30.03
2019-04-21T14:55:27.581Z,31.82
2019-04-21T14:58:27.541Z,30.98
2019-04-21T15:01:28.213Z,30.72
2019-04-21T15:04:28.031Z,31.67
2019-04-21T15:07:27.609Z,29.96
2019-04-21T15:10:30.565Z,31.18
2019-04-21T15:13:28.052Z,31.68
2019-04-21T15:16:27.371Z,30.81
2019-04-21T15:19:28.674Z,31.21
2019-04-21T15:22:28.342Z,31.46
2019-04-21T15:25:27.966Z,31.38
2019-04-21T15:28:30.707Z,31.67
2019-04-21T15:31:32.986Z,31.26
2019-04-21T15:34:28.206Z,30.03
2019-04-21T15:37:28.263Z,29.44
2019-04-21T15:40:37.688Z,29.41
2019-04-21T15:43:28.638Z,28.40
2019-04-21T15:46:27.061Z,29.78
2019-04-21T15:49:33.205Z,29.18
2019-04-21T15:52:28.218Z,29.31
2019-04-21T15:55:26.969Z,28.43
2019-04-21T15:58:28.260Z,28.46
2019-04-21T16:01:28.135Z,28.75
2019-04-21T16:04:26.896Z,27.04
2019-04-21T16:07:26.846Z,27.73
2019-04-21T16:10:37.635Z,28.51
2019-04-21T16:13:27.797Z,28.48
2019-04-21T16:16:29.082Z,27.09
2019-04-21T16:19:27.201Z,28.04
2019-04-21T16:22:26.697Z,27.51
2019-04-21T16:25:26.866Z,25.00
2019-04-21T16:28:27.054Z,24.23
2019-04-21T16:31:27.875Z,24.23
2019-04-21T16:34:39.275Z,24.10
2019-04-21T16:37:27.837Z,24.08
2019-04-21T16:40:27.598Z,24.05
2019-04-21T16:43:27.478Z,24.04
2019-04-21T16:46:27.464Z,23.75
2019-04-21T16:49:27.483Z,23.71
2019-04-21T16:52:27.996Z,23.29
2019-04-21T16:55:26.783Z,23.29
2019-04-21T16:58:28.703Z,23.27
2019-04-21T17:01:29.220Z,23.26
2019-04-21T17:04:26.556Z,23.09
2019-04-21T17:07:26.358Z,22.89
2019-04-21T17:10:26.606Z,22.87
2019-04-21T17:13:27.216Z,22.64
2019-04-21T17:17:08.732Z,22.60
2019-04-21T17:19:31.612Z,22.44
2019-04-21T17:22:28.002Z,22.38
2019-04-21T17:25:27.825Z,22.28
2019-04-21T17:28:26.007Z,22.06
2019-04-21T17:31:26.668Z,21.98
2019-04-21T17:34:29.722Z,21.85
2019-04-21T17:37:27.290Z,21.72
2019-04-21T17:40:26.358Z,21.57
2019-04-21T17:43:25.884Z,21.61
2019-04-21T17:46:36.694Z,21.57
2019-04-21T17:49:26.790Z,21.38
2019-04-21T17:52:36.598Z,21.29
2019-04-21T17:55:31.315Z,21.08
2019-04-21T17:58:46.285Z,21.17
2019-04-21T18:01:47.478Z,21.11
2019-04-21T18:04:49.350Z,20.98
2019-04-21T18:07:45.406Z,20.76
2019-04-21T18:10:39.187Z,20.69
2019-04-21T18:13:26.945Z,20.54
2019-04-21T18:16:34.276Z,20.39
2019-04-21T18:19:31.055Z,20.05
2019-04-21T18:24:15.208Z,20.02
2019-04-21T18:27:11.591Z,19.69
2019-04-21T18:30:10.609Z,19.70
2019-04-21T18:33:15.495Z,19.65
2019-04-21T18:36:13.468Z,19.57
2019-04-21T18:39:28.574Z,19.42
2019-04-21T18:42:31.149Z,19.29
2019-04-21T18:48:24.535Z,19.14
2019-04-21T18:51:15.746Z,18.98
2019-04-21T18:54:28.853Z,18.86
2019-04-21T18:57:22.810Z,18.79
2019-04-21T19:00:19.373Z,18.76
2019-04-21T19:03:13.698Z,18.72
2019-04-21T19:06:16.466Z,18.65
2019-04-21T19:09:35.851Z,18.70
2019-04-21T19:12:47.358Z,18.55
2019-04-21T19:15:28.172Z,18.39
2019-04-21T19:18:39.862Z,18.36
2019-04-21T19:21:24.537Z,18.21
2019-04-21T19:24:33.261Z,18.21
2019-04-21T19:27:26.039Z,18.06
2019-04-21T19:30:36.774Z,18.02
2019-04-21T19:33:27.018Z,17.97
2019-04-21T19:36:11.182Z,17.89
2019-04-21T19:39:16.121Z,17.79
2019-04-21T19:42:19.331Z,17.87
2019-04-21T19:45:22.416Z,17.67
2019-04-21T19:48:26.097Z,17.55
2019-04-21T19:51:22.022Z,17.63
2019-04-21T19:54:22.122Z,17.50
2019-04-21T19:57:11.189Z,17.33
2019-04-21T20:00:10.173Z,17.38
2019-04-21T20:03:10.469Z,17.32
2019-04-21T20:06:26.887Z,17.28
2019-04-21T20:09:27.823Z,17.07
2019-04-21T20:12:35.530Z,17.08
2019-04-21T20:15:37.366Z,16.96
2019-04-21T20:18:21.042Z,16.98
2019-04-21T20:21:10.177Z,16.85
2019-04-21T20:24:12.640Z,16.78
2019-04-21T20:27:17.788Z,16.78
2019-04-21T20:30:23.344Z,16.58
2019-04-21T20:33:47.759Z,16.65
2019-04-21T20:36:31.397Z,16.65
2019-04-21T20:39:16.594Z,16.52
2019-04-21T20:42:21.621Z,16.56
2019-04-21T20:48:21.067Z,16.35
2019-04-21T20:51:27.413Z,16.25
2019-04-21T20:54:27.120Z,16.12
2019-04-21T20:57:25.931Z,16.07
2019-04-21T21:00:32.226Z,15.88
2019-04-21T21:03:28.884Z,15.99
2019-04-21T21:06:30.346Z,15.84
2019-04-21T21:09:25.342Z,15.78
2019-04-21T21:15:26.394Z,15.52
2019-04-21T21:21:28.011Z,15.28
2019-04-21T21:24:31.187Z,15.31
2019-04-21T21:27:25.424Z,15.23
2019-04-21T21:30:24.302Z,15.02
2019-04-21T21:33:27.466Z,15.09
2019-04-21T21:36:25.210Z,14.99
2019-04-21T21:39:35.512Z,14.95
2019-04-21T21:42:11.307Z,15.01
2019-04-21T21:45:15.971Z,15.01
2019-04-21T21:48:29.632Z,14.98
2019-04-21T21:51:18.101Z,14.93
2019-04-21T21:54:09.706Z,14.86
2019-04-21T21:57:08.289Z,14.71
2019-04-21T22:00:12.378Z,14.56
2019-04-21T22:03:17.595Z,14.46
2019-04-21T22:06:15.250Z,14.37
2019-04-21T22:09:10.207Z,14.35
2019-04-21T22:12:09.114Z,14.37
2019-04-21T22:15:10.859Z,14.38
2019-04-21T22:18:30.363Z,14.31
2019-04-21T22:21:18.949Z,14.13
2019-04-21T22:24:23.629Z,13.83
2019-04-21T22:27:09.465Z,13.59
2019-04-21T22:30:11.005Z,13.38
2019-04-21T22:33:10.842Z,13.29
2019-04-21T22:36:23.836Z,13.32
2019-04-21T22:39:27.283Z,13.47
2019-04-21T22:42:15.723Z,13.38
2019-04-21T22:45:09.327Z,13.18
2019-04-21T22:48:14.353Z,13.18
2019-04-21T22:51:19.162Z,13.09
2019-04-21T22:54:08.394Z,13.03
2019-04-21T22:57:14.719Z,12.97
2019-04-21T23:00:11.861Z,12.95
2019-04-21T23:03:15.019Z,12.77
2019-04-21T23:06:16.213Z,12.81
2019-04-21T23:09:08.797Z,12.81
2019-04-21T23:12:08.092Z,12.78
2019-04-21T23:15:13.436Z,13.03
2019-04-21T23:18:27.338Z,13.02
2019-04-21T23:21:19.489Z,12.78
2019-04-21T23:24:33.115Z,12.77
2019-04-21T23:27:19.958Z,12.57
2019-04-21T23:30:33.592Z,12.44
2019-04-21T23:33:12.292Z,12.34
2019-04-21T23:36:13.912Z,12.12
2019-04-21T23:39:17.029Z,11.99
2019-04-21T23:42:09.205Z,11.61
2019-04-21T23:45:08.618Z,11.27
2019-04-21T23:48:18.611Z,11.14
2019-04-21T23:51:21.814Z,11.53
2019-04-21T23:54:09.097Z,11.82
2019-04-21T23:57:14.231Z,11.57
